sensor_id;sensor_type;location;lat;lon;timestamp;P1;durP1;ratioP1;P2;durP2;ratioP2
18320;SDS011;54904;54.350;18.664;2023-08-30T00:02:24;1.67;;;1.58;;
18320;SDS011;54904;54.350;18.664;2023-08-30T00:04:51;1.70;;;1.60;;
18320;SDS011;54904;54.350;18.664;2023-08-30T00:07:20;1.38;;;1.27;;
18320;SDS011;54904;54.350;18.664;2023-08-30T00:09:47;1.90;;;1.65;;
18320;SDS011;54904;54.350;18.664;2023-08-30T00:12:14;1.83;;;1.73;;
18320;SDS011;54904;54.350;18.664;2023-08-30T00:14:41;2.03;;;1.83;;
18320;SDS011;54904;54.350;18.664;2023-08-30T00:17:11;1.70;;;1.60;;
18320;SDS011;54904;54.350;18.664;2023-08-30T00:19:38;2.00;;;1.90;;
18320;SDS011;54904;54.350;18.664;2023-08-30T00:22:05;1.75;;;1.65;;
18320;SDS011;54904;54.350;18.664;2023-08-30T00:24:34;1.80;;;1.70;;
18320;SDS011;54904;54.350;18.664;2023-08-30T00:27:03;1.80;;;1.70;;
18320;SDS011;54904;54.350;18.664;2023-08-30T00:29:32;1.42;;;1.33;;
18320;SDS011;54904;54.350;18.664;2023-08-30T00:32:00;1.80;;;1.70;;
18320;SDS011;54904;54.350;18.664;2023-08-30T00:34:27;2.33;;;2.00;;
18320;SDS011;54904;54.350;18.664;2023-08-30T00:36:54;2.45;;;2.25;;
18320;SDS011;54904;54.350;18.664;2023-08-30T00:39:21;2.53;;;2.38;;
18320;SDS011;54904;54.350;18.664;2023-08-30T00:41:49;2.60;;;2.40;;
18320;SDS011;54904;54.350;18.664;2023-08-30T00:44:16;2.20;;;2.10;;
18320;SDS011;54904;54.350;18.664;2023-08-30T00:46:43;2.10;;;2.00;;
18320;SDS011;54904;54.350;18.664;2023-08-30T00:49:13;2.53;;;2.35;;
18320;SDS011;54904;54.350;18.664;2023-08-30T00:51:40;1.90;;;1.80;;
18320;SDS011;54904;54.350;18.664;2023-08-30T00:54:07;1.98;;;1.88;;
18320;SDS011;54904;54.350;18.664;2023-08-30T00:56:34;2.83;;;2.25;;
18320;SDS011;54904;54.350;18.664;2023-08-30T00:59:03;2.20;;;2.00;;
18320;SDS011;54904;54.350;18.664;2023-08-30T01:01:31;2.25;;;1.95;;
18320;SDS011;54904;54.350;18.664;2023-08-30T01:03:59;2.33;;;2.13;;
18320;SDS011;54904;54.350;18.664;2023-08-30T01:06:26;2.45;;;2.25;;
18320;SDS011;54904;54.350;18.664;2023-08-30T01:08:53;2.28;;;2.17;;
18320;SDS011;54904;54.350;18.664;2023-08-30T01:11:21;2.40;;;2.20;;
18320;SDS011;54904;54.350;18.664;2023-08-30T01:13:56;2.40;;;2.20;;
18320;SDS011;54904;54.350;18.664;2023-08-30T01:16:27;2.47;;;2.28;;
18320;SDS011;54904;54.350;18.664;2023-08-30T01:18:56;2.58;;;2.38;;
18320;SDS011;54904;54.350;18.664;2023-08-30T01:21:27;3.17;;;2.63;;
18320;SDS011;54904;54.350;18.664;2023-08-30T01:24:03;2.05;;;1.95;;
18320;SDS011;54904;54.350;18.664;2023-08-30T01:26:39;2.80;;;2.60;;
18320;SDS011;54904;54.350;18.664;2023-08-30T01:29:12;2.40;;;2.20;;
18320;SDS011;54904;54.350;18.664;2023-08-30T01:31:43;1.98;;;1.88;;
18320;SDS011;54904;54.350;18.664;2023-08-30T01:34:12;2.60;;;2.40;;
18320;SDS011;54904;54.350;18.664;2023-08-30T01:36:40;2.30;;;2.15;;
18320;SDS011;54904;54.350;18.664;2023-08-30T01:39:08;2.65;;;2.20;;
18320;SDS011;54904;54.350;18.664;2023-08-30T01:41:37;2.33;;;2.20;;
18320;SDS011;54904;54.350;18.664;2023-08-30T01:44:07;3.55;;;1.88;;
18320;SDS011;54904;54.350;18.664;2023-08-30T01:46:37;1.80;;;1.70;;
18320;SDS011;54904;54.350;18.664;2023-08-30T01:49:05;1.58;;;1.50;;
18320;SDS011;54904;54.350;18.664;2023-08-30T01:51:34;1.60;;;1.50;;
18320;SDS011;54904;54.350;18.664;2023-08-30T01:54:02;1.73;;;1.63;;
18320;SDS011;54904;54.350;18.664;2023-08-30T01:56:30;2.05;;;1.95;;
18320;SDS011;54904;54.350;18.664;2023-08-30T01:58:57;2.42;;;1.88;;
18320;SDS011;54904;54.350;18.664;2023-08-30T02:01:31;2.22;;;2.05;;
18320;SDS011;54904;54.350;18.664;2023-08-30T02:04:00;1.80;;;1.70;;
18320;SDS011;54904;54.350;18.664;2023-08-30T02:06:29;1.88;;;1.77;;
18320;SDS011;54904;54.350;18.664;2023-08-30T02:09:07;1.73;;;1.63;;
18320;SDS011;54904;54.350;18.664;2023-08-30T02:11:40;2.10;;;2.00;;
18320;SDS011;54904;54.350;18.664;2023-08-30T02:14:12;1.90;;;1.80;;
18320;SDS011;54904;54.350;18.664;2023-08-30T02:16:42;1.90;;;1.80;;
18320;SDS011;54904;54.350;18.664;2023-08-30T02:19:12;1.95;;;1.85;;
18320;SDS011;54904;54.350;18.664;2023-08-30T02:21:42;1.70;;;1.60;;
18320;SDS011;54904;54.350;18.664;2023-08-30T02:24:09;1.70;;;1.60;;
18320;SDS011;54904;54.350;18.664;2023-08-30T02:26:36;2.40;;;2.20;;
18320;SDS011;54904;54.350;18.664;2023-08-30T02:29:03;2.25;;;2.05;;
18320;SDS011;54904;54.350;18.664;2023-08-30T02:31:31;2.15;;;2.05;;
18320;SDS011;54904;54.350;18.664;2023-08-30T02:33:58;2.28;;;2.17;;
18320;SDS011;54904;54.350;18.664;2023-08-30T02:36:26;1.95;;;1.85;;
18320;SDS011;54904;54.350;18.664;2023-08-30T02:38:55;2.22;;;2.03;;
18320;SDS011;54904;54.350;18.664;2023-08-30T02:41:22;1.85;;;1.75;;
18320;SDS011;54904;54.350;18.664;2023-08-30T02:43:49;2.28;;;2.08;;
18320;SDS011;54904;54.350;18.664;2023-08-30T02:46:19;1.75;;;1.65;;
18320;SDS011;54904;54.350;18.664;2023-08-30T02:48:46;1.77;;;1.67;;
18320;SDS011;54904;54.350;18.664;2023-08-30T02:51:13;2.22;;;1.80;;
18320;SDS011;54904;54.350;18.664;2023-08-30T02:53:43;1.65;;;1.55;;
18320;SDS011;54904;54.350;18.664;2023-08-30T02:56:10;2.70;;;2.50;;
18320;SDS011;54904;54.350;18.664;2023-08-30T02:58:37;2.03;;;1.92;;
18320;SDS011;54904;54.350;18.664;2023-08-30T03:01:08;2.67;;;2.47;;
18320;SDS011;54904;54.350;18.664;2023-08-30T03:03:35;2.17;;;2.00;;
18320;SDS011;54904;54.350;18.664;2023-08-30T03:06:02;3.20;;;3.00;;
18320;SDS011;54904;54.350;18.664;2023-08-30T03:08:30;2.42;;;2.22;;
18320;SDS011;54904;54.350;18.664;2023-08-30T03:11:08;2.53;;;2.33;;
18320;SDS011;54904;54.350;18.664;2023-08-30T03:13:38;2.00;;;1.90;;
18320;SDS011;54904;54.350;18.664;2023-08-30T03:16:12;1.95;;;1.85;;
18320;SDS011;54904;54.350;18.664;2023-08-30T03:18:39;2.40;;;2.20;;
18320;SDS011;54904;54.350;18.664;2023-08-30T03:21:07;2.10;;;2.00;;
18320;SDS011;54904;54.350;18.664;2023-08-30T03:23:42;1.20;;;1.20;;
18320;SDS011;54904;54.350;18.664;2023-08-30T03:26:11;1.77;;;1.67;;
18320;SDS011;54904;54.350;18.664;2023-08-30T03:28:39;1.80;;;1.70;;
18320;SDS011;54904;54.350;18.664;2023-08-30T03:31:15;2.53;;;2.33;;
18320;SDS011;54904;54.350;18.664;2023-08-30T03:33:44;1.70;;;1.60;;
18320;SDS011;54904;54.350;18.664;2023-08-30T03:36:15;1.48;;;1.40;;
18320;SDS011;54904;54.350;18.664;2023-08-30T03:38:44;1.27;;;1.27;;
18320;SDS011;54904;54.350;18.664;2023-08-30T03:41:13;1.70;;;1.60;;
18320;SDS011;54904;54.350;18.664;2023-08-30T03:43:43;1.10;;;1.10;;
18320;SDS011;54904;54.350;18.664;2023-08-30T03:46:10;1.00;;;1.00;;
18320;SDS011;54904;54.350;18.664;2023-08-30T03:48:37;1.05;;;1.05;;
18320;SDS011;54904;54.350;18.664;2023-08-30T03:51:04;1.13;;;1.13;;
18320;SDS011;54904;54.350;18.664;2023-08-30T03:53:32;1.30;;;1.20;;
18320;SDS011;54904;54.350;18.664;2023-08-30T03:55:59;1.00;;;1.00;;
18320;SDS011;54904;54.350;18.664;2023-08-30T03:58:30;0.68;;;0.68;;
18320;SDS011;54904;54.350;18.664;2023-08-30T04:00:58;0.80;;;0.80;;
18320;SDS011;54904;54.350;18.664;2023-08-30T04:03:25;1.08;;;0.80;;
18320;SDS011;54904;54.350;18.664;2023-08-30T04:05:54;0.80;;;0.80;;
18320;SDS011;54904;54.350;18.664;2023-08-30T04:08:22;0.70;;;0.70;;
18320;SDS011;54904;54.350;18.664;2023-08-30T04:10:51;0.82;;;0.82;;
18320;SDS011;54904;54.350;18.664;2023-08-30T04:13:19;0.65;;;0.65;;
18320;SDS011;54904;54.350;18.664;2023-08-30T04:15:48;0.60;;;0.60;;
18320;SDS011;54904;54.350;18.664;2023-08-30T04:18:18;0.60;;;0.60;;
18320;SDS011;54904;54.350;18.664;2023-08-30T04:20:46;0.77;;;0.77;;
18320;SDS011;54904;54.350;18.664;2023-08-30T04:23:13;0.60;;;0.60;;
18320;SDS011;54904;54.350;18.664;2023-08-30T04:25:40;0.50;;;0.50;;
18320;SDS011;54904;54.350;18.664;2023-08-30T04:28:09;0.70;;;0.70;;
18320;SDS011;54904;54.350;18.664;2023-08-30T04:30:36;0.60;;;0.60;;
18320;SDS011;54904;54.350;18.664;2023-08-30T04:33:05;0.60;;;0.60;;
18320;SDS011;54904;54.350;18.664;2023-08-30T04:35:32;0.60;;;0.60;;
18320;SDS011;54904;54.350;18.664;2023-08-30T04:38:00;0.45;;;0.45;;
18320;SDS011;54904;54.350;18.664;2023-08-30T04:40:28;0.40;;;0.40;;
18320;SDS011;54904;54.350;18.664;2023-08-30T04:42:59;0.50;;;0.50;;
18320;SDS011;54904;54.350;18.664;2023-08-30T04:45:27;0.70;;;0.70;;
18320;SDS011;54904;54.350;18.664;2023-08-30T04:47:57;0.60;;;0.60;;
18320;SDS011;54904;54.350;18.664;2023-08-30T04:50:27;0.77;;;0.77;;
18320;SDS011;54904;54.350;18.664;2023-08-30T04:52:55;0.50;;;0.50;;
18320;SDS011;54904;54.350;18.664;2023-08-30T04:55:24;0.52;;;0.52;;
18320;SDS011;54904;54.350;18.664;2023-08-30T04:57:51;0.60;;;0.60;;
18320;SDS011;54904;54.350;18.664;2023-08-30T05:00:19;0.40;;;0.40;;
18320;SDS011;54904;54.350;18.664;2023-08-30T05:02:46;0.60;;;0.60;;
18320;SDS011;54904;54.350;18.664;2023-08-30T05:05:16;0.55;;;0.55;;
18320;SDS011;54904;54.350;18.664;2023-08-30T05:07:44;0.50;;;0.50;;
18320;SDS011;54904;54.350;18.664;2023-08-30T05:10:12;0.63;;;0.63;;
18320;SDS011;54904;54.350;18.664;2023-08-30T05:12:39;0.60;;;0.60;;
18320;SDS011;54904;54.350;18.664;2023-08-30T05:15:09;0.50;;;0.50;;
18320;SDS011;54904;54.350;18.664;2023-08-30T05:17:36;0.50;;;0.50;;
18320;SDS011;54904;54.350;18.664;2023-08-30T05:20:04;0.60;;;0.60;;
18320;SDS011;54904;54.350;18.664;2023-08-30T05:22:32;0.50;;;0.50;;
18320;SDS011;54904;54.350;18.664;2023-08-30T05:25:00;0.73;;;0.73;;
18320;SDS011;54904;54.350;18.664;2023-08-30T05:27:28;0.40;;;0.40;;
18320;SDS011;54904;54.350;18.664;2023-08-30T05:29:55;0.57;;;0.57;;
18320;SDS011;54904;54.350;18.664;2023-08-30T05:32:22;0.52;;;0.52;;
18320;SDS011;54904;54.350;18.664;2023-08-30T05:35:04;0.43;;;0.43;;
18320;SDS011;54904;54.350;18.664;2023-08-30T05:37:51;0.70;;;0.70;;
18320;SDS011;54904;54.350;18.664;2023-08-30T05:40:29;0.60;;;0.60;;
18320;SDS011;54904;54.350;18.664;2023-08-30T05:42:56;0.55;;;0.55;;
18320;SDS011;54904;54.350;18.664;2023-08-30T05:45:26;0.57;;;0.57;;
18320;SDS011;54904;54.350;18.664;2023-08-30T05:47:53;0.40;;;0.40;;
18320;SDS011;54904;54.350;18.664;2023-08-30T05:50:20;0.63;;;0.63;;
18320;SDS011;54904;54.350;18.664;2023-08-30T05:52:52;0.50;;;0.50;;
18320;SDS011;54904;54.350;18.664;2023-08-30T05:55:19;0.50;;;0.50;;
18320;SDS011;54904;54.350;18.664;2023-08-30T05:57:48;0.60;;;0.60;;
18320;SDS011;54904;54.350;18.664;2023-08-30T06:00:15;0.60;;;0.60;;
18320;SDS011;54904;54.350;18.664;2023-08-30T06:02:43;0.70;;;0.70;;
18320;SDS011;54904;54.350;18.664;2023-08-30T06:05:10;0.55;;;0.55;;
18320;SDS011;54904;54.350;18.664;2023-08-30T06:07:37;0.50;;;0.50;;
18320;SDS011;54904;54.350;18.664;2023-08-30T06:10:04;0.70;;;0.70;;
18320;SDS011;54904;54.350;18.664;2023-08-30T06:12:32;1.38;;;0.68;;
18320;SDS011;54904;54.350;18.664;2023-08-30T06:15:00;0.60;;;0.60;;
18320;SDS011;54904;54.350;18.664;2023-08-30T06:17:29;0.68;;;0.68;;
18320;SDS011;54904;54.350;18.664;2023-08-30T06:19:56;0.55;;;0.55;;
18320;SDS011;54904;54.350;18.664;2023-08-30T06:22:23;0.43;;;0.43;;
18320;SDS011;54904;54.350;18.664;2023-08-30T06:24:50;0.57;;;0.57;;
18320;SDS011;54904;54.350;18.664;2023-08-30T06:27:17;0.80;;;0.52;;
18320;SDS011;54904;54.350;18.664;2023-08-30T06:29:45;0.40;;;0.40;;
18320;SDS011;54904;54.350;18.664;2023-08-30T06:32:14;0.50;;;0.50;;
18320;SDS011;54904;54.350;18.664;2023-08-30T06:34:41;0.68;;;0.68;;
18320;SDS011;54904;54.350;18.664;2023-08-30T06:37:08;0.40;;;0.40;;
18320;SDS011;54904;54.350;18.664;2023-08-30T06:39:35;0.45;;;0.45;;
18320;SDS011;54904;54.350;18.664;2023-08-30T06:42:02;0.50;;;0.50;;
18320;SDS011;54904;54.350;18.664;2023-08-30T06:44:33;0.70;;;0.70;;
18320;SDS011;54904;54.350;18.664;2023-08-30T06:47:00;0.50;;;0.50;;
18320;SDS011;54904;54.350;18.664;2023-08-30T06:49:28;0.73;;;0.40;;
18320;SDS011;54904;54.350;18.664;2023-08-30T06:51:57;0.40;;;0.40;;
18320;SDS011;54904;54.350;18.664;2023-08-30T06:54:28;0.40;;;0.40;;
18320;SDS011;54904;54.350;18.664;2023-08-30T06:56:57;0.50;;;0.50;;
18320;SDS011;54904;54.350;18.664;2023-08-30T06:59:24;0.50;;;0.50;;
18320;SDS011;54904;54.350;18.664;2023-08-30T07:01:52;0.70;;;0.50;;
18320;SDS011;54904;54.350;18.664;2023-08-30T07:04:19;0.47;;;0.45;;
18320;SDS011;54904;54.350;18.664;2023-08-30T07:06:47;0.47;;;0.47;;
18320;SDS011;54904;54.350;18.664;2023-08-30T07:09:15;2.47;;;0.52;;
18320;SDS011;54904;54.350;18.664;2023-08-30T07:11:42;0.40;;;0.40;;
18320;SDS011;54904;54.350;18.664;2023-08-30T07:14:10;0.38;;;0.38;;
18320;SDS011;54904;54.350;18.664;2023-08-30T07:16:39;0.40;;;0.40;;
18320;SDS011;54904;54.350;18.664;2023-08-30T07:19:06;0.30;;;0.30;;
18320;SDS011;54904;54.350;18.664;2023-08-30T07:21:35;0.50;;;0.50;;
18320;SDS011;54904;54.350;18.664;2023-08-30T07:24:06;0.47;;;0.47;;
18320;SDS011;54904;54.350;18.664;2023-08-30T07:26:34;0.50;;;0.50;;
18320;SDS011;54904;54.350;18.664;2023-08-30T07:29:01;0.47;;;0.47;;
18320;SDS011;54904;54.350;18.664;2023-08-30T07:31:32;0.40;;;0.40;;
18320;SDS011;54904;54.350;18.664;2023-08-30T07:33:59;0.40;;;0.40;;
18320;SDS011;54904;54.350;18.664;2023-08-30T07:36:29;0.43;;;0.43;;
18320;SDS011;54904;54.350;18.664;2023-08-30T07:38:57;0.57;;;0.57;;
18320;SDS011;54904;54.350;18.664;2023-08-30T07:41:27;0.40;;;0.40;;
18320;SDS011;54904;54.350;18.664;2023-08-30T07:43:54;0.55;;;0.55;;
18320;SDS011;54904;54.350;18.664;2023-08-30T07:46:21;0.80;;;0.68;;
18320;SDS011;54904;54.350;18.664;2023-08-30T07:48:50;0.60;;;0.60;;
18320;SDS011;54904;54.350;18.664;2023-08-30T07:51:17;0.60;;;0.60;;
18320;SDS011;54904;54.350;18.664;2023-08-30T07:53:45;0.60;;;0.60;;
18320;SDS011;54904;54.350;18.664;2023-08-30T07:56:12;0.60;;;0.60;;
18320;SDS011;54904;54.350;18.664;2023-08-30T07:58:41;0.45;;;0.45;;
18320;SDS011;54904;54.350;18.664;2023-08-30T08:01:08;0.50;;;0.50;;
18320;SDS011;54904;54.350;18.664;2023-08-30T08:03:37;0.50;;;0.50;;
18320;SDS011;54904;54.350;18.664;2023-08-30T08:06:06;0.60;;;0.60;;
18320;SDS011;54904;54.350;18.664;2023-08-30T08:08:34;0.50;;;0.50;;
18320;SDS011;54904;54.350;18.664;2023-08-30T08:11:03;0.60;;;0.60;;
18320;SDS011;54904;54.350;18.664;2023-08-30T08:13:30;0.50;;;0.50;;
18320;SDS011;54904;54.350;18.664;2023-08-30T08:15:59;0.60;;;0.60;;
18320;SDS011;54904;54.350;18.664;2023-08-30T08:18:26;0.50;;;0.50;;
18320;SDS011;54904;54.350;18.664;2023-08-30T08:20:53;0.65;;;0.65;;
18320;SDS011;54904;54.350;18.664;2023-08-30T08:23:20;0.50;;;0.50;;
18320;SDS011;54904;54.350;18.664;2023-08-30T08:25:47;1.55;;;0.52;;
18320;SDS011;54904;54.350;18.664;2023-08-30T08:28:14;0.47;;;0.47;;
18320;SDS011;54904;54.350;18.664;2023-08-30T08:30:42;0.40;;;0.40;;
18320;SDS011;54904;54.350;18.664;2023-08-30T08:33:17;0.60;;;0.60;;
18320;SDS011;54904;54.350;18.664;2023-08-30T08:35:45;0.40;;;0.40;;
18320;SDS011;54904;54.350;18.664;2023-08-30T08:38:14;0.50;;;0.50;;
18320;SDS011;54904;54.350;18.664;2023-08-30T08:40:41;0.40;;;0.40;;
18320;SDS011;54904;54.350;18.664;2023-08-30T08:43:09;0.45;;;0.45;;
18320;SDS011;54904;54.350;18.664;2023-08-30T08:45:40;0.30;;;0.30;;
18320;SDS011;54904;54.350;18.664;2023-08-30T08:48:07;0.30;;;0.30;;
18320;SDS011;54904;54.350;18.664;2023-08-30T08:50:37;0.50;;;0.50;;
18320;SDS011;54904;54.350;18.664;2023-08-30T08:53:04;0.35;;;0.35;;
18320;SDS011;54904;54.350;18.664;2023-08-30T08:55:32;0.38;;;0.38;;
18320;SDS011;54904;54.350;18.664;2023-08-30T08:58:00;0.40;;;0.40;;
18320;SDS011;54904;54.350;18.664;2023-08-30T09:00:30;0.30;;;0.30;;
18320;SDS011;54904;54.350;18.664;2023-08-30T09:02:57;0.40;;;0.40;;
18320;SDS011;54904;54.350;18.664;2023-08-30T09:05:25;0.50;;;0.50;;
18320;SDS011;54904;54.350;18.664;2023-08-30T09:07:55;0.35;;;0.35;;
18320;SDS011;54904;54.350;18.664;2023-08-30T09:10:27;0.40;;;0.40;;
18320;SDS011;54904;54.350;18.664;2023-08-30T09:12:54;0.40;;;0.40;;
18320;SDS011;54904;54.350;18.664;2023-08-30T09:15:21;0.50;;;0.50;;
18320;SDS011;54904;54.350;18.664;2023-08-30T09:17:48;0.40;;;0.40;;
18320;SDS011;54904;54.350;18.664;2023-08-30T09:20:15;0.30;;;0.30;;
18320;SDS011;54904;54.350;18.664;2023-08-30T09:22:43;0.43;;;0.43;;
18320;SDS011;54904;54.350;18.664;2023-08-30T09:25:22;0.40;;;0.40;;
18320;SDS011;54904;54.350;18.664;2023-08-30T09:27:50;0.47;;;0.47;;
18320;SDS011;54904;54.350;18.664;2023-08-30T09:30:21;0.50;;;0.50;;
18320;SDS011;54904;54.350;18.664;2023-08-30T09:32:50;0.40;;;0.40;;
18320;SDS011;54904;54.350;18.664;2023-08-30T09:35:17;0.40;;;0.40;;
18320;SDS011;54904;54.350;18.664;2023-08-30T09:37:44;0.40;;;0.40;;
18320;SDS011;54904;54.350;18.664;2023-08-30T09:40:19;0.80;;;0.50;;
18320;SDS011;54904;54.350;18.664;2023-08-30T09:42:47;0.60;;;0.60;;
18320;SDS011;54904;54.350;18.664;2023-08-30T09:45:18;0.57;;;0.57;;
18320;SDS011;54904;54.350;18.664;2023-08-30T09:47:46;0.40;;;0.40;;
18320;SDS011;54904;54.350;18.664;2023-08-30T09:50:15;0.40;;;0.40;;
18320;SDS011;54904;54.350;18.664;2023-08-30T09:52:45;0.40;;;0.40;;
18320;SDS011;54904;54.350;18.664;2023-08-30T09:55:14;0.45;;;0.45;;
18320;SDS011;54904;54.350;18.664;2023-08-30T09:57:43;0.50;;;0.50;;
18320;SDS011;54904;54.350;18.664;2023-08-30T10:00:10;0.50;;;0.50;;
18320;SDS011;54904;54.350;18.664;2023-08-30T10:02:38;0.55;;;0.55;;
18320;SDS011;54904;54.350;18.664;2023-08-30T10:05:09;0.40;;;0.40;;
18320;SDS011;54904;54.350;18.664;2023-08-30T10:07:37;0.40;;;0.40;;
18320;SDS011;54904;54.350;18.664;2023-08-30T10:10:05;0.40;;;0.40;;
18320;SDS011;54904;54.350;18.664;2023-08-30T10:12:34;0.50;;;0.50;;
18320;SDS011;54904;54.350;18.664;2023-08-30T10:15:04;0.40;;;0.40;;
18320;SDS011;54904;54.350;18.664;2023-08-30T10:17:32;0.43;;;0.43;;
18320;SDS011;54904;54.350;18.664;2023-08-30T10:20:01;0.40;;;0.40;;
18320;SDS011;54904;54.350;18.664;2023-08-30T10:22:31;0.40;;;0.40;;
18320;SDS011;54904;54.350;18.664;2023-08-30T10:25:02;0.40;;;0.40;;
18320;SDS011;54904;54.350;18.664;2023-08-30T10:27:33;0.35;;;0.35;;
18320;SDS011;54904;54.350;18.664;2023-08-30T10:30:07;0.95;;;0.50;;
18320;SDS011;54904;54.350;18.664;2023-08-30T10:32:41;0.60;;;0.47;;
18320;SDS011;54904;54.350;18.664;2023-08-30T10:35:12;0.95;;;0.50;;
18320;SDS011;54904;54.350;18.664;2023-08-30T10:37:40;0.50;;;0.43;;
18320;SDS011;54904;54.350;18.664;2023-08-30T10:40:08;0.30;;;0.30;;
18320;SDS011;54904;54.350;18.664;2023-08-30T10:42:35;0.50;;;0.50;;
18320;SDS011;54904;54.350;18.664;2023-08-30T10:45:05;0.50;;;0.50;;
18320;SDS011;54904;54.350;18.664;2023-08-30T10:47:34;0.60;;;0.60;;
18320;SDS011;54904;54.350;18.664;2023-08-30T10:50:04;0.60;;;0.60;;
18320;SDS011;54904;54.350;18.664;2023-08-30T10:52:32;1.90;;;0.50;;
18320;SDS011;54904;54.350;18.664;2023-08-30T10:55:06;0.52;;;0.52;;
18320;SDS011;54904;54.350;18.664;2023-08-30T10:57:34;2.33;;;0.60;;
18320;SDS011;54904;54.350;18.664;2023-08-30T11:00:06;0.60;;;0.60;;
18320;SDS011;54904;54.350;18.664;2023-08-30T11:02:35;0.50;;;0.50;;
18320;SDS011;54904;54.350;18.664;2023-08-30T11:05:02;0.70;;;0.70;;
18320;SDS011;54904;54.350;18.664;2023-08-30T11:07:34;0.60;;;0.60;;
18320;SDS011;54904;54.350;18.664;2023-08-30T11:10:04;0.65;;;0.65;;
18320;SDS011;54904;54.350;18.664;2023-08-30T11:12:31;0.60;;;0.60;;
18320;SDS011;54904;54.350;18.664;2023-08-30T11:14:58;0.40;;;0.40;;
18320;SDS011;54904;54.350;18.664;2023-08-30T11:17:27;0.50;;;0.50;;
18320;SDS011;54904;54.350;18.664;2023-08-30T11:19:57;0.60;;;0.60;;
18320;SDS011;54904;54.350;18.664;2023-08-30T11:22:31;0.50;;;0.50;;
18320;SDS011;54904;54.350;18.664;2023-08-30T11:24:59;0.50;;;0.50;;
18320;SDS011;54904;54.350;18.664;2023-08-30T11:27:26;0.60;;;0.60;;
18320;SDS011;54904;54.350;18.664;2023-08-30T11:29:53;0.50;;;0.50;;
18320;SDS011;54904;54.350;18.664;2023-08-30T11:32:28;0.50;;;0.50;;
18320;SDS011;54904;54.350;18.664;2023-08-30T11:34:59;0.30;;;0.30;;
18320;SDS011;54904;54.350;18.664;2023-08-30T11:37:26;0.60;;;0.60;;
18320;SDS011;54904;54.350;18.664;2023-08-30T11:40:01;0.50;;;0.50;;
18320;SDS011;54904;54.350;18.664;2023-08-30T11:42:30;0.50;;;0.50;;
18320;SDS011;54904;54.350;18.664;2023-08-30T11:44:57;0.45;;;0.45;;
18320;SDS011;54904;54.350;18.664;2023-08-30T11:47:25;0.50;;;0.50;;
18320;SDS011;54904;54.350;18.664;2023-08-30T11:49:55;1.50;;;0.68;;
18320;SDS011;54904;54.350;18.664;2023-08-30T11:52:23;0.60;;;0.60;;
18320;SDS011;54904;54.350;18.664;2023-08-30T11:54:54;0.65;;;0.65;;
18320;SDS011;54904;54.350;18.664;2023-08-30T11:57:21;0.60;;;0.60;;
18320;SDS011;54904;54.350;18.664;2023-08-30T11:59:48;0.50;;;0.50;;
18320;SDS011;54904;54.350;18.664;2023-08-30T12:02:15;0.90;;;0.60;;
18320;SDS011;54904;54.350;18.664;2023-08-30T12:04:46;0.50;;;0.50;;
18320;SDS011;54904;54.350;18.664;2023-08-30T12:07:22;0.50;;;0.50;;
18320;SDS011;54904;54.350;18.664;2023-08-30T12:09:52;0.60;;;0.60;;
18320;SDS011;54904;54.350;18.664;2023-08-30T12:12:31;1.20;;;0.60;;
18320;SDS011;54904;54.350;18.664;2023-08-30T12:14:58;0.43;;;0.43;;
18320;SDS011;54904;54.350;18.664;2023-08-30T12:17:26;0.60;;;0.60;;
18320;SDS011;54904;54.350;18.664;2023-08-30T12:19:56;0.52;;;0.52;;
18320;SDS011;54904;54.350;18.664;2023-08-30T12:22:39;0.57;;;0.57;;
18320;SDS011;54904;54.350;18.664;2023-08-30T12:25:15;0.70;;;0.70;;
18320;SDS011;54904;54.350;18.664;2023-08-30T12:27:43;0.50;;;0.50;;
18320;SDS011;54904;54.350;18.664;2023-08-30T12:30:13;0.60;;;0.60;;
18320;SDS011;54904;54.350;18.664;2023-08-30T12:32:41;0.60;;;0.60;;
18320;SDS011;54904;54.350;18.664;2023-08-30T12:35:16;0.73;;;0.73;;
18320;SDS011;54904;54.350;18.664;2023-08-30T12:37:45;0.60;;;0.60;;
18320;SDS011;54904;54.350;18.664;2023-08-30T12:40:12;0.60;;;0.60;;
18320;SDS011;54904;54.350;18.664;2023-08-30T12:42:39;0.68;;;0.68;;
18320;SDS011;54904;54.350;18.664;2023-08-30T12:45:06;0.55;;;0.55;;
18320;SDS011;54904;54.350;18.664;2023-08-30T12:47:34;0.68;;;0.68;;
18320;SDS011;54904;54.350;18.664;2023-08-30T12:50:01;0.60;;;0.60;;
18320;SDS011;54904;54.350;18.664;2023-08-30T12:52:28;0.60;;;0.60;;
18320;SDS011;54904;54.350;18.664;2023-08-30T12:54:57;0.50;;;0.50;;
18320;SDS011;54904;54.350;18.664;2023-08-30T12:57:24;0.50;;;0.50;;
18320;SDS011;54904;54.350;18.664;2023-08-30T12:59:51;0.52;;;0.52;;
18320;SDS011;54904;54.350;18.664;2023-08-30T13:02:21;0.50;;;0.50;;
18320;SDS011;54904;54.350;18.664;2023-08-30T13:04:48;0.60;;;0.60;;
18320;SDS011;54904;54.350;18.664;2023-08-30T13:07:15;0.60;;;0.60;;
18320;SDS011;54904;54.350;18.664;2023-08-30T13:09:42;0.50;;;0.50;;
18320;SDS011;54904;54.350;18.664;2023-08-30T13:12:11;0.40;;;0.40;;
18320;SDS011;54904;54.350;18.664;2023-08-30T13:14:38;0.60;;;0.60;;
18320;SDS011;54904;54.350;18.664;2023-08-30T13:17:05;0.60;;;0.60;;
18320;SDS011;54904;54.350;18.664;2023-08-30T13:19:32;0.65;;;0.65;;
18320;SDS011;54904;54.350;18.664;2023-08-30T13:21:59;0.60;;;0.60;;
18320;SDS011;54904;54.350;18.664;2023-08-30T13:24:26;0.60;;;0.60;;
18320;SDS011;54904;54.350;18.664;2023-08-30T13:26:53;0.57;;;0.57;;
18320;SDS011;54904;54.350;18.664;2023-08-30T13:29:22;0.60;;;0.60;;
18320;SDS011;54904;54.350;18.664;2023-08-30T13:31:49;0.50;;;0.50;;
18320;SDS011;54904;54.350;18.664;2023-08-30T13:34:16;0.57;;;0.57;;
18320;SDS011;54904;54.350;18.664;2023-08-30T13:36:43;0.50;;;0.50;;
18320;SDS011;54904;54.350;18.664;2023-08-30T13:39:10;0.52;;;0.52;;
18320;SDS011;54904;54.350;18.664;2023-08-30T13:41:37;0.60;;;0.60;;
18320;SDS011;54904;54.350;18.664;2023-08-30T13:44:04;2.25;;;0.60;;
18320;SDS011;54904;54.350;18.664;2023-08-30T13:46:33;0.60;;;0.60;;
18320;SDS011;54904;54.350;18.664;2023-08-30T13:49:00;0.40;;;0.40;;
18320;SDS011;54904;54.350;18.664;2023-08-30T13:51:30;0.50;;;0.50;;
18320;SDS011;54904;54.350;18.664;2023-08-30T13:53:58;0.60;;;0.60;;
18320;SDS011;54904;54.350;18.664;2023-08-30T13:56:25;0.60;;;0.60;;
18320;SDS011;54904;54.350;18.664;2023-08-30T13:58:52;0.50;;;0.50;;
18320;SDS011;54904;54.350;18.664;2023-08-30T14:01:19;0.52;;;0.52;;
18320;SDS011;54904;54.350;18.664;2023-08-30T14:03:48;0.50;;;0.50;;
18320;SDS011;54904;54.350;18.664;2023-08-30T14:06:15;0.50;;;0.50;;
18320;SDS011;54904;54.350;18.664;2023-08-30T14:08:42;0.45;;;0.45;;
18320;SDS011;54904;54.350;18.664;2023-08-30T14:11:09;0.60;;;0.60;;
18320;SDS011;54904;54.350;18.664;2023-08-30T14:13:39;0.50;;;0.50;;
18320;SDS011;54904;54.350;18.664;2023-08-30T14:16:06;0.50;;;0.50;;
18320;SDS011;54904;54.350;18.664;2023-08-30T14:18:34;0.50;;;0.50;;
18320;SDS011;54904;54.350;18.664;2023-08-30T14:21:02;0.60;;;0.60;;
18320;SDS011;54904;54.350;18.664;2023-08-30T14:23:29;0.50;;;0.50;;
18320;SDS011;54904;54.350;18.664;2023-08-30T14:25:57;0.60;;;0.60;;
18320;SDS011;54904;54.350;18.664;2023-08-30T14:28:24;0.50;;;0.50;;
18320;SDS011;54904;54.350;18.664;2023-08-30T14:30:51;0.70;;;0.70;;
18320;SDS011;54904;54.350;18.664;2023-08-30T14:33:22;0.55;;;0.55;;
18320;SDS011;54904;54.350;18.664;2023-08-30T14:35:49;0.70;;;0.70;;
18320;SDS011;54904;54.350;18.664;2023-08-30T14:38:20;0.52;;;0.52;;
18320;SDS011;54904;54.350;18.664;2023-08-30T14:40:54;0.55;;;0.55;;
18320;SDS011;54904;54.350;18.664;2023-08-30T14:43:24;0.75;;;0.57;;